Point Reyes Station, CA

9:25 PM PDT on October 24, 2014 (GMT -0700)
Point Reyes Mesa bluff | Change Station
CLOSE
Current Station
Personal Weather Station
Location: Point Reyes Station, CA
Elevation: 70 ft
Nearby Weather Stations
Active Advisory: Wind Advisory

Elev 70 ft 38.08 °N, 122.82 °W | Updated 38 seconds ago

Partly Cloudy
Partly Cloudy
62.8 °F
Feels Like 62.8 °F
N
5.0
Wind Variable Wind from SSE
Gusts 6.0 mph

Today
High -- | Low -- °F
--% Chance of Precip.
Yesterday
High -- | Low -- °F
Precip. -- in
7:28 AM 6:21 PM
New Moon, 2% visible
Pressure 29.92 in
Visibility 10.0 miles
Clouds Mostly Cloudy 2600 ft
Dew Point 58 °F
Humidity 86%
Rainfall 0.00 in
Snow Depth Not available.
UV 0 out of 12
Pollen 2.60 out of 12
Air Quality Not available.
Flu Activity Sporadic
METAR KO69 250415Z AUTO 00000KT 10SM BKN026 14/12 A2992 RMK AO1

More Conditions Fewer Conditions

Pressure 29.92 in
Visibility 10.0 miles
Clouds Mostly Cloudy 2600 ft
Dew Point 58 °F
Humidity 86%
Rainfall 0.00 in
Snow Depth Not available.
UV 0 out of 12
Pollen 2.60 out of 12
Air Quality Not available.
Flu Activity Sporadic
METAR KO69 250415Z AUTO 00000KT 10SM BKN026 14/12 A2992 RMK AO1

More Conditions Fewer Conditions

10-Day Weather Forecast

Almanac

Astronomy

Oct. 24, 2014 Rise Set
Actual Time 7:28 AM PDT 6:21 PM PDT
Civil Twilight 7:01 AM PDT 6:48 PM PDT
Nautical Twilight 6:31 AM PDT 7:19 PM PDT
Astronomical Twilight 6:00 AM PDT 7:49 PM PDT
Moon 8:12 AM PDT (10/24) 7:05 PM PDT (10/24)
Length of Visible Light 11h 46m
Length of Day
10h 52m
Tomorrow will be 2m 16s shorter.
New Moon, 2% of the Moon is Illuminated
Oct 25
New Moon
Oct 30
First Quarter
Nov 6
Full
Nov 14
Last Quarter
Nov 22
New

Yesterday's Extremes

State Highs State Lows

Community

WunderPhotos

Upload Photos

1,764,781 photos uploaded!

Nearby

Snow Depth

Station Depth Elevation
Echo Peak 0 in 7800 ft
CSS Lab 0 in 6900 ft
Squaw Valley 0 in 8200 ft
Rubicon #2 0 in 7500 ft
Fallen Leaf 0 in 6300 ft

Earthquake Activity

City Distance Mag. Time & Date
No recent earthquake activity has been reported nearby.
Minimum magnitude displayed is 2.5.

Coastal Water Temperatures

Place Temperature
Point Reyes, CA 61.0 °F
Arena Cove, CA 61.0 °F
San Francisco, CA 63.0 °F
Richmond, CA 64.0 °F

Nearby Weather Stations